Sara Borchard — V2BY8 — position and weather

sailwx.info

Track history (hours):
 
Tides and Currents Weather Stations Pressure Air Temp Water Temp Dewpoint Dewpoint Depression Visibility Wind Speed Wind Dir Waves Ship Positions

Sara Borchard

Last reported at 2014-Nov-24 19:10 UTC. Time now 2014-Nov-26 11:17 UTC.
Position N 34°11' E 033°12'.

Length 134 m; draft 8.1 m.

Type: Ship (hazmat cat A). MMSI: 304962000.

Date/timePositionNaut miles runAvg speedWind from/ knotsBaromVisibWave heightAir tempDewpointWater temp
2014-Nov-24 19:10N 34°11' E 033°12'914.2
2014-Nov-24 18:33N 34°20' E 033°09'1414.4
2014-Nov-24 17:33N 34°34' E 033°05'6 5.8
2014-Nov-24 16:31N 34°39' E 033°01'0 0.0
2014-Nov-24 15:33N 34°39' E 033°01'0 0.0
2014-Nov-24 14:33N 34°39' E 033°01'0 0.0
2014-Nov-24 13:33N 34°39' E 033°01'0 0.0
2014-Nov-24 12:33N 34°39' E 033°01'0 0.0
2014-Nov-24 11:33N 34°39' E 033°01'0 0.0
2014-Nov-24 10:33N 34°39' E 033°01'0 0.0
2014-Nov-24 09:34N 34°39' E 033°01'1 1.1
2014-Nov-24 08:33N 34°39' E 033°02'9 9.4
2014-Nov-24 07:33N 34°31' E 032°57'1313.2
2014-Nov-24 06:33N 34°33' E 032°41'  
2014-Nov-21 19:30N 38°12' E 015°35'37515.6
2014-Nov-20 19:27N 42°39' E 009°49'3015.7
2014-Nov-20 17:33N 43°07' E 009°36'1615.8
2014-Nov-20 16:33N 43°22' E 009°29'1616.3
2014-Nov-20 15:33N 43°37' E 009°20'1616.4
2014-Nov-20 14:33N 43°52' E 009°12'1616.4
2014-Nov-20 13:33N 44°08' E 009°04'1615.9
2014-Nov-20 12:33N 44°23' E 008°57'3 2.6
2014-Nov-20 11:33N 44°24' E 008°54'0 0.0
2014-Nov-20 10:29N 44°24' E 008°54'0 0.0
2014-Nov-20 09:29N 44°24' E 008°54'0 0.0
2014-Nov-20 08:32N 44°24' E 008°54'0 0.0
2014-Nov-20 07:25N 44°24' E 008°54'0 0.0
2014-Nov-20 06:28N 44°24' E 008°54'0 0.1
2014-Nov-20 05:33N 44°24' E 008°54'7 6.5
2014-Nov-20 04:34N 44°18' E 008°57'1717.3
2014-Nov-20 03:33N 44°06' E 008°39'5116.6
2014-Nov-20 00:30N 43°35' E 007°44'1716.9
2014-Nov-19 23:28N 43°24' E 007°25'1717.0
2014-Nov-19 22:27N 43°14' E 007°05'1616.8
2014-Nov-19 21:30N 43°06' E 006°47'1616.6
2014-Nov-19 20:34N 42°58' E 006°28'1616.2
2014-Nov-19 19:34N 42°57' E 006°06'1717.2
2014-Nov-19 18:33N 43°01' E 005°43'1917.7
2014-Nov-19 17:28N 43°08' E 005°19'1212.8
2014-Nov-19 16:33N 43°20' E 005°18'2 1.8
2014-Nov-19 15:30N 43°21' E 005°20'0 0.0
2014-Nov-19 14:18N 43°21' E 005°20'0 0.0
2014-Nov-19 11:22N 43°21' E 005°20'0 0.0
2014-Nov-19 09:21N 43°21' E 005°20'0 0.0
2014-Nov-19 08:30N 43°21' E 005°20'0 0.0
2014-Nov-19 07:27N 43°21' E 005°20'0 0.0
2014-Nov-19 06:20N 43°21' E 005°20'0 0.0
2014-Nov-19 05:26N 43°21' E 005°20'0 0.0
2014-Nov-19 04:33N 43°21' E 005°20'9 9.1
2014-Nov-19 03:33N 43°15' E 005°11'1312.4
2014-Nov-19 02:32N 43°03' E 005°03'1515.5
2014-Nov-19 01:32N 42°52' E 004°49'7517.2
2014-Nov-18 21:10N 42°00' E 003°35'1717.0
2014-Nov-18 20:10N 41°50' E 003°17'1117.4
2014-Nov-18 19:31N 41°43' E 003°05'2217.6
2014-Nov-18 18:15N 41°29' E 002°41'1418.3
2014-Nov-18 17:29N 41°21' E 002°26'17 1.5
2014-Nov-18 06:08N 41°14' E 002°05'2817.6
2014-Nov-18 04:31N 40°58' E 001°34'86 5.7
2014-Nov-17 13:20N 39°33' E 001°15'1113.6
2014-Nov-17 12:32N 39°29' E 001°28'1414.4
2014-Nov-17 11:33N 39°23' E 001°45'1414.4
2014-Nov-17 10:33N 39°18' E 002°02'1414.4
2014-Nov-17 09:33N 39°12' E 002°19'1514.8
2014-Nov-17 08:33N 39°07' E 002°37'1515.1
2014-Nov-17 07:33N 39°02' E 002°55'1615.7
2014-Nov-17 06:33N 38°58' E 003°15'1616.2
2014-Nov-17 05:33N 38°53' E 003°35'46715.5
2014-Nov-15 23:28N 36°48' E 013°04'1416.0
2014-Nov-15 22:33N 36°43' E 013°21'1716.4
2014-Nov-15 21:31N 36°38' E 013°41'1616.3
2014-Nov-15 20:33N 36°33' E 013°60'1616.4
2014-Nov-15 19:33N 36°27' E 014°19'1816.3
2014-Nov-15 18:28N 36°22' E 014°40'  
Track history (hours):
 
Tides and Currents Weather Stations Pressure Air Temp Water Temp Dewpoint Dewpoint Depression Visibility Wind Speed Wind Dir Waves Ship Positions

Sara Borchard

Last reported at 2014-Nov-24 19:10 UTC. Time now 2014-Nov-26 11:17 UTC.
Position N 34°11' E 033°12'.

Length 134 m; draft 8.1 m.

Type: Ship (hazmat cat A). MMSI: 304962000.

Date/timePositionNaut miles runAvg speedWind from/ knotsBaromVisibWave heightAir tempDewpointWater temp
2014-Nov-24 19:10N 34°11' E 033°12'914.2
2014-Nov-24 18:33N 34°20' E 033°09'1414.4
2014-Nov-24 17:33N 34°34' E 033°05'6 5.8
2014-Nov-24 16:31N 34°39' E 033°01'0 0.0
2014-Nov-24 15:33N 34°39' E 033°01'0 0.0
2014-Nov-24 14:33N 34°39' E 033°01'0 0.0
2014-Nov-24 13:33N 34°39' E 033°01'0 0.0
2014-Nov-24 12:33N 34°39' E 033°01'0 0.0
2014-Nov-24 11:33N 34°39' E 033°01'0 0.0
2014-Nov-24 10:33N 34°39' E 033°01'0 0.0
2014-Nov-24 09:34N 34°39' E 033°01'1 1.1
2014-Nov-24 08:33N 34°39' E 033°02'9 9.4
2014-Nov-24 07:33N 34°31' E 032°57'1313.2
2014-Nov-24 06:33N 34°33' E 032°41'  
2014-Nov-21 19:30N 38°12' E 015°35'37515.6
2014-Nov-20 19:27N 42°39' E 009°49'3015.7
2014-Nov-20 17:33N 43°07' E 009°36'1615.8
2014-Nov-20 16:33N 43°22' E 009°29'1616.3
2014-Nov-20 15:33N 43°37' E 009°20'1616.4
2014-Nov-20 14:33N 43°52' E 009°12'1616.4
2014-Nov-20 13:33N 44°08' E 009°04'1615.9
2014-Nov-20 12:33N 44°23' E 008°57'3 2.6
2014-Nov-20 11:33N 44°24' E 008°54'0 0.0
2014-Nov-20 10:29N 44°24' E 008°54'0 0.0
2014-Nov-20 09:29N 44°24' E 008°54'0 0.0
2014-Nov-20 08:32N 44°24' E 008°54'0 0.0
2014-Nov-20 07:25N 44°24' E 008°54'0 0.0
2014-Nov-20 06:28N 44°24' E 008°54'0 0.1
2014-Nov-20 05:33N 44°24' E 008°54'7 6.5
2014-Nov-20 04:34N 44°18' E 008°57'1717.3
2014-Nov-20 03:33N 44°06' E 008°39'5116.6
2014-Nov-20 00:30N 43°35' E 007°44'1716.9
2014-Nov-19 23:28N 43°24' E 007°25'1717.0
2014-Nov-19 22:27N 43°14' E 007°05'1616.8
2014-Nov-19 21:30N 43°06' E 006°47'1616.6
2014-Nov-19 20:34N 42°58' E 006°28'1616.2
2014-Nov-19 19:34N 42°57' E 006°06'1717.2
2014-Nov-19 18:33N 43°01' E 005°43'1917.7
2014-Nov-19 17:28N 43°08' E 005°19'1212.8
2014-Nov-19 16:33N 43°20' E 005°18'2 1.8
2014-Nov-19 15:30N 43°21' E 005°20'0 0.0
2014-Nov-19 14:18N 43°21' E 005°20'0 0.0
2014-Nov-19 11:22N 43°21' E 005°20'0 0.0
2014-Nov-19 09:21N 43°21' E 005°20'0 0.0
2014-Nov-19 08:30N 43°21' E 005°20'0 0.0
2014-Nov-19 07:27N 43°21' E 005°20'0 0.0
2014-Nov-19 06:20N 43°21' E 005°20'0 0.0
2014-Nov-19 05:26N 43°21' E 005°20'0 0.0
2014-Nov-19 04:33N 43°21' E 005°20'9 9.1
2014-Nov-19 03:33N 43°15' E 005°11'1312.4
2014-Nov-19 02:32N 43°03' E 005°03'1515.5
2014-Nov-19 01:32N 42°52' E 004°49'7517.2
2014-Nov-18 21:10N 42°00' E 003°35'1717.0
2014-Nov-18 20:10N 41°50' E 003°17'1117.4
2014-Nov-18 19:31N 41°43' E 003°05'2217.6
2014-Nov-18 18:15N 41°29' E 002°41'1418.3
2014-Nov-18 17:29N 41°21' E 002°26'17 1.5
2014-Nov-18 06:08N 41°14' E 002°05'2817.6
2014-Nov-18 04:31N 40°58' E 001°34'86 5.7
2014-Nov-17 13:20N 39°33' E 001°15'1113.6
2014-Nov-17 12:32N 39°29' E 001°28'1414.4
2014-Nov-17 11:33N 39°23' E 001°45'1414.4
2014-Nov-17 10:33N 39°18' E 002°02'1414.4
2014-Nov-17 09:33N 39°12' E 002°19'1514.8
2014-Nov-17 08:33N 39°07' E 002°37'1515.1
2014-Nov-17 07:33N 39°02' E 002°55'1615.7
2014-Nov-17 06:33N 38°58' E 003°15'1616.2
2014-Nov-17 05:33N 38°53' E 003°35'46715.5
2014-Nov-15 23:28N 36°48' E 013°04'1416.0
2014-Nov-15 22:33N 36°43' E 013°21'1716.4
2014-Nov-15 21:31N 36°38' E 013°41'1616.3
2014-Nov-15 20:33N 36°33' E 013°60'1616.4
2014-Nov-15 19:33N 36°27' E 014°19'1816.3
2014-Nov-15 18:28N 36°22' E 014°40'  

Dump ship's entire track history